sensor_id;sensor_type;location;lat;lon;timestamp;temperature;humidity
54946;DHT22;40846;44.788;20.486;2023-08-08T06:58:02;486.60;2380.80
54946;DHT22;40846;44.788;20.486;2023-08-08T07:00:29;486.40;2380.80
54946;DHT22;40846;44.788;20.486;2023-08-08T07:03:03;461.60;2380.80
54946;DHT22;40846;44.788;20.486;2023-08-08T09:34:41;588.90;2201.60
54946;DHT22;40846;44.788;20.486;2023-08-08T09:37:08;564.00;2227.20
54946;DHT22;40846;44.788;20.486;2023-08-08T09:39:36;563.90;2278.40
54946;DHT22;40846;44.788;20.486;2023-08-08T09:42:02;588.80;2227.20
54946;DHT22;40846;44.788;20.486;2023-08-08T10:04:06;614.60;2022.40
54946;DHT22;40846;44.788;20.486;2023-08-08T10:06:32;589.60;2048.00
54946;DHT22;40846;44.788;20.486;2023-08-08T10:09:02;589.60;2022.40
54946;DHT22;40846;44.788;20.486;2023-08-08T10:11:30;589.60;1971.20
54946;DHT22;40846;44.788;20.486;2023-08-08T10:13:57;589.50;1971.20
54946;DHT22;40846;44.788;20.486;2023-08-08T10:16:23;589.40;1996.80
54946;DHT22;40846;44.788;20.486;2023-08-08T10:21:24;614.40;2022.40
54946;DHT22;40846;44.788;20.486;2023-08-08T10:23:49;589.60;2048.00
54946;DHT22;40846;44.788;20.486;2023-08-08T10:26:26;589.50;1996.80
54946;DHT22;40846;44.788;20.486;2023-08-08T12:42:08;614.80;1843.20
54946;DHT22;40846;44.788;20.486;2023-08-08T12:44:34;614.70;1945.60
54946;DHT22;40846;44.788;20.486;2023-08-08T12:47:00;614.70;1843.20
54946;DHT22;40846;44.788;20.486;2023-08-08T12:49:25;614.50;1868.80
54946;DHT22;40846;44.788;20.486;2023-08-08T12:51:52;614.60;1868.80
54946;DHT22;40846;44.788;20.486;2023-08-08T12:54:21;614.50;1868.80
54946;DHT22;40846;44.788;20.486;2023-08-08T12:56:47;614.60;1894.40
54946;DHT22;40846;44.788;20.486;2023-08-08T12:59:12;614.80;1868.80
54946;DHT22;40846;44.788;20.486;2023-08-08T13:01:38;614.70;1817.60
54946;DHT22;40846;44.788;20.486;2023-08-08T13:04:04;614.50;1792.00
54946;DHT22;40846;44.788;20.486;2023-08-08T13:06:30;614.50;1817.60
54946;DHT22;40846;44.788;20.486;2023-08-08T13:08:55;614.60;1817.60
54946;DHT22;40846;44.788;20.486;2023-08-08T13:11:22;614.60;1817.60
54946;DHT22;40846;44.788;20.486;2023-08-08T13:13:47;614.50;1817.60
54946;DHT22;40846;44.788;20.486;2023-08-08T13:16:13;614.50;1792.00
54946;DHT22;40846;44.788;20.486;2023-08-08T13:18:39;614.50;1792.00
54946;DHT22;40846;44.788;20.486;2023-08-08T13:21:05;614.50;1792.00
54946;DHT22;40846;44.788;20.486;2023-08-08T13:23:32;614.50;1792.00
54946;DHT22;40846;44.788;20.486;2023-08-08T13:25:57;614.50;1766.40
54946;DHT22;40846;44.788;20.486;2023-08-08T13:28:23;614.50;1792.00
54946;DHT22;40846;44.788;20.486;2023-08-08T13:30:49;614.60;1792.00
54946;DHT22;40846;44.788;20.486;2023-08-08T13:33:15;614.90;1766.40
54946;DHT22;40846;44.788;20.486;2023-08-08T13:35:40;614.90;1740.80
54946;DHT22;40846;44.788;20.486;2023-08-08T13:38:06;614.80;1766.40
54946;DHT22;40846;44.788;20.486;2023-08-08T13:40:33;614.80;1766.40
54946;DHT22;40846;44.788;20.486;2023-08-08T13:42:59;614.80;1766.40
54946;DHT22;40846;44.788;20.486;2023-08-08T15:10:45;640.10;1587.20
54946;DHT22;40846;44.788;20.486;2023-08-08T15:18:03;615.20;1612.80
54946;DHT22;40846;44.788;20.486;2023-08-08T15:20:29;614.90;1638.40
54946;DHT22;40846;44.788;20.486;2023-08-08T15:22:54;615.00;1638.40
54946;DHT22;40846;44.788;20.486;2023-08-08T15:25:20;614.80;1664.00
54946;DHT22;40846;44.788;20.486;2023-08-08T15:27:46;614.80;1664.00
54946;DHT22;40846;44.788;20.486;2023-08-08T15:30:11;614.70;1664.00
54946;DHT22;40846;44.788;20.486;2023-08-08T15:32:37;614.80;1664.00
54946;DHT22;40846;44.788;20.486;2023-08-08T15:35:03;614.90;1689.60
54946;DHT22;40846;44.788;20.486;2023-08-08T15:49:43;615.20;1689.60
54946;DHT22;40846;44.788;20.486;2023-08-08T15:52:08;615.00;1689.60
54946;DHT22;40846;44.788;20.486;2023-08-08T15:54:34;614.90;1689.60
54946;DHT22;40846;44.788;20.486;2023-08-08T15:57:00;615.00;1689.60
54946;DHT22;40846;44.788;20.486;2023-08-08T15:59:27;615.00;1664.00
54946;DHT22;40846;44.788;20.486;2023-08-08T16:01:53;615.00;1638.40
54946;DHT22;40846;44.788;20.486;2023-08-08T16:04:18;614.90;1638.40
54946;DHT22;40846;44.788;20.486;2023-08-08T16:06:44;614.80;1638.40
54946;DHT22;40846;44.788;20.486;2023-08-08T16:09:10;614.90;1638.40
54946;DHT22;40846;44.788;20.486;2023-08-08T16:11:36;614.80;1638.40
54946;DHT22;40846;44.788;20.486;2023-08-08T16:14:02;614.90;1638.40
54946;DHT22;40846;44.788;20.486;2023-08-08T16:16:28;614.90;1664.00
54946;DHT22;40846;44.788;20.486;2023-08-08T16:18:53;615.00;1664.00
54946;DHT22;40846;44.788;20.486;2023-08-08T16:21:19;615.00;1638.40
54946;DHT22;40846;44.788;20.486;2023-08-08T16:23:45;614.90;1612.80
54946;DHT22;40846;44.788;20.486;2023-08-08T16:26:11;614.80;1664.00
54946;DHT22;40846;44.788;20.486;2023-08-08T16:28:36;614.80;1664.00
54946;DHT22;40846;44.788;20.486;2023-08-08T16:31:02;614.70;1638.40
